sensor_id;sensor_type;location;lat;lon;timestamp;pressure;altitude;pressure_sealevel;temperature;humidity
80186;BME280;69904;52.122;5.422;2024-02-23T00:02:10;98696.03;;;4.90;90.72
80186;BME280;69904;52.122;5.422;2024-02-23T00:04:37;98700.56;;;4.90;90.56
80186;BME280;69904;52.122;5.422;2024-02-23T00:07:03;98706.91;;;4.95;90.72
80186;BME280;69904;52.122;5.422;2024-02-23T00:09:30;98701.13;;;4.98;90.19
80186;BME280;69904;52.122;5.422;2024-02-23T00:11:56;98704.59;;;5.05;90.20
80186;BME280;69904;52.122;5.422;2024-02-23T00:14:23;98710.75;;;5.06;90.14
80186;BME280;69904;52.122;5.422;2024-02-23T00:16:49;98712.41;;;5.07;90.42
80186;BME280;69904;52.122;5.422;2024-02-23T00:19:16;98715.47;;;5.11;90.63
80186;BME280;69904;52.122;5.422;2024-02-23T00:21:44;98711.97;;;5.10;90.68
80186;BME280;69904;52.122;5.422;2024-02-23T00:24:16;98717.31;;;5.10;90.44
80186;BME280;69904;52.122;5.422;2024-02-23T00:26:43;98721.63;;;5.11;90.77
80186;BME280;69904;52.122;5.422;2024-02-23T00:29:09;98722.00;;;5.15;91.15
80186;BME280;69904;52.122;5.422;2024-02-23T00:31:39;98729.00;;;5.16;91.11
80186;BME280;69904;52.122;5.422;2024-02-23T00:34:09;98720.53;;;5.19;91.50
80186;BME280;69904;52.122;5.422;2024-02-23T00:36:38;98737.19;;;5.21;91.51
80186;BME280;69904;52.122;5.422;2024-02-23T00:39:06;98737.19;;;5.21;91.96
80186;BME280;69904;52.122;5.422;2024-02-23T00:41:34;98735.34;;;5.21;91.84
80186;BME280;69904;52.122;5.422;2024-02-23T00:44:02;98739.66;;;5.22;92.35
80186;BME280;69904;52.122;5.422;2024-02-23T00:46:29;98739.22;;;5.25;92.56
80186;BME280;69904;52.122;5.422;2024-02-23T00:48:55;98755.06;;;5.27;92.70
80186;BME280;69904;52.122;5.422;2024-02-23T00:51:22;98754.03;;;5.28;92.67
80186;BME280;69904;52.122;5.422;2024-02-23T00:53:49;98752.75;;;5.30;92.88
80186;BME280;69904;52.122;5.422;2024-02-23T00:56:15;98762.63;;;5.30;92.26
80186;BME280;69904;52.122;5.422;2024-02-23T00:58:42;98757.28;;;5.30;91.96
80186;BME280;69904;52.122;5.422;2024-02-23T01:01:08;98773.78;;;5.27;91.39
80186;BME280;69904;52.122;5.422;2024-02-23T01:03:35;98772.34;;;5.24;91.17
80186;BME280;69904;52.122;5.422;2024-02-23T01:06:01;98774.19;;;5.24;91.33
80186;BME280;69904;52.122;5.422;2024-02-23T01:08:28;98799.72;;;5.20;91.66
80186;BME280;69904;52.122;5.422;2024-02-23T01:10:54;98784.13;;;5.17;91.81
80186;BME280;69904;52.122;5.422;2024-02-23T01:13:21;98803.28;;;5.07;91.47
80186;BME280;69904;52.122;5.422;2024-02-23T01:15:47;98816.06;;;4.92;91.86
80186;BME280;69904;52.122;5.422;2024-02-23T01:18:14;98806.28;;;4.79;91.12
80186;BME280;69904;52.122;5.422;2024-02-23T01:20:40;98825.19;;;4.78;90.00
80186;BME280;69904;52.122;5.422;2024-02-23T01:23:07;98810.78;;;4.79;90.12
80186;BME280;69904;52.122;5.422;2024-02-23T01:25:34;98802.38;;;4.75;88.16
80186;BME280;69904;52.122;5.422;2024-02-23T01:28:01;98791.09;;;4.66;86.74
80186;BME280;69904;52.122;5.422;2024-02-23T01:30:27;98805.91;;;4.62;86.84
80186;BME280;69904;52.122;5.422;2024-02-23T01:32:54;98821.28;;;4.74;87.42
80186;BME280;69904;52.122;5.422;2024-02-23T01:35:20;98820.66;;;4.72;87.79
80186;BME280;69904;52.122;5.422;2024-02-23T01:37:47;98852.34;;;4.68;88.81
80186;BME280;69904;52.122;5.422;2024-02-23T01:40:14;98840.44;;;4.64;89.42
80186;BME280;69904;52.122;5.422;2024-02-23T01:42:40;98818.00;;;4.65;90.06
80186;BME280;69904;52.122;5.422;2024-02-23T01:45:07;98823.34;;;4.65;90.57
80186;BME280;69904;52.122;5.422;2024-02-23T01:47:34;98822.13;;;4.61;91.45
80186;BME280;69904;52.122;5.422;2024-02-23T01:50:01;98831.78;;;4.62;91.81
80186;BME280;69904;52.122;5.422;2024-02-23T01:52:28;98855.22;;;4.66;92.77
80186;BME280;69904;52.122;5.422;2024-02-23T01:54:55;98867.75;;;4.73;92.90
80186;BME280;69904;52.122;5.422;2024-02-23T01:57:23;98856.41;;;4.77;93.16
80186;BME280;69904;52.122;5.422;2024-02-23T02:00:11;98859.50;;;4.81;93.68
80186;BME280;69904;52.122;5.422;2024-02-23T02:02:40;98858.47;;;4.82;93.75
80186;BME280;69904;52.122;5.422;2024-02-23T02:05:06;98865.66;;;4.81;93.78
80186;BME280;69904;52.122;5.422;2024-02-23T02:07:34;98863.22;;;4.80;93.81
80186;BME280;69904;52.122;5.422;2024-02-23T02:10:00;98874.94;;;4.79;94.06
80186;BME280;69904;52.122;5.422;2024-02-23T02:12:27;98867.94;;;4.78;94.08
80186;BME280;69904;52.122;5.422;2024-02-23T02:14:54;98870.81;;;4.76;93.70
80186;BME280;69904;52.122;5.422;2024-02-23T02:17:22;98881.72;;;4.75;93.71
80186;BME280;69904;52.122;5.422;2024-02-23T02:19:49;98861.38;;;4.74;93.57
80186;BME280;69904;52.122;5.422;2024-02-23T02:22:15;98877.59;;;4.72;93.58
80186;BME280;69904;52.122;5.422;2024-02-23T02:24:42;98873.72;;;4.68;93.38
80186;BME280;69904;52.122;5.422;2024-02-23T02:27:10;98860.34;;;4.68;93.60
80186;BME280;69904;52.122;5.422;2024-02-23T02:29:36;98860.53;;;4.66;93.59
80186;BME280;69904;52.122;5.422;2024-02-23T02:32:03;98867.75;;;4.66;93.66
80186;BME280;69904;52.122;5.422;2024-02-23T02:34:30;98871.22;;;4.66;93.23
80186;BME280;69904;52.122;5.422;2024-02-23T02:36:56;98863.41;;;4.65;92.90
80186;BME280;69904;52.122;5.422;2024-02-23T02:39:23;98876.78;;;4.65;92.82
80186;BME280;69904;52.122;5.422;2024-02-23T02:41:49;98875.34;;;4.62;92.55
80186;BME280;69904;52.122;5.422;2024-02-23T02:44:16;98879.06;;;4.61;92.49
80186;BME280;69904;52.122;5.422;2024-02-23T02:46:42;98870.66;;;4.64;92.30
80186;BME280;69904;52.122;5.422;2024-02-23T02:49:09;98885.41;;;4.60;91.44
80186;BME280;69904;52.122;5.422;2024-02-23T02:51:36;98880.50;;;4.64;91.25
80186;BME280;69904;52.122;5.422;2024-02-23T02:54:02;98888.53;;;4.64;91.10
80186;BME280;69904;52.122;5.422;2024-02-23T02:56:29;98894.06;;;4.62;91.05
80186;BME280;69904;52.122;5.422;2024-02-23T02:58:55;98897.34;;;4.64;90.90
80186;BME280;69904;52.122;5.422;2024-02-23T03:01:22;98881.72;;;4.61;91.08
80186;BME280;69904;52.122;5.422;2024-02-23T03:03:48;98890.56;;;4.62;91.04
80186;BME280;69904;52.122;5.422;2024-02-23T03:06:15;98887.25;;;4.60;90.75
80186;BME280;69904;52.122;5.422;2024-02-23T03:08:42;98888.91;;;4.61;91.03
80186;BME280;69904;52.122;5.422;2024-02-23T03:11:08;98886.03;;;4.56;90.86
80186;BME280;69904;52.122;5.422;2024-02-23T03:13:35;98906.81;;;4.54;91.16
80186;BME280;69904;52.122;5.422;2024-02-23T03:16:02;98893.47;;;4.54;90.93
80186;BME280;69904;52.122;5.422;2024-02-23T03:18:28;98910.28;;;4.54;90.91
80186;BME280;69904;52.122;5.422;2024-02-23T03:20:54;98902.50;;;4.53;90.73
80186;BME280;69904;52.122;5.422;2024-02-23T03:23:21;98921.59;;;4.50;90.82
80186;BME280;69904;52.122;5.422;2024-02-23T03:25:48;98904.75;;;4.49;90.58
80186;BME280;69904;52.122;5.422;2024-02-23T03:28:14;98920.16;;;4.47;90.77
80186;BME280;69904;52.122;5.422;2024-02-23T03:30:41;98906.81;;;4.47;90.71
80186;BME280;69904;52.122;5.422;2024-02-23T03:33:07;98907.00;;;4.46;90.51
80186;BME280;69904;52.122;5.422;2024-02-23T03:35:34;98915.44;;;4.43;90.69
80186;BME280;69904;52.122;5.422;2024-02-23T03:38:01;98916.47;;;4.42;90.45
80186;BME280;69904;52.122;5.422;2024-02-23T03:40:28;98932.69;;;4.40;90.74
80186;BME280;69904;52.122;5.422;2024-02-23T03:42:54;98922.44;;;4.37;90.32
80186;BME280;69904;52.122;5.422;2024-02-23T03:45:21;98925.28;;;4.36;90.42
80186;BME280;69904;52.122;5.422;2024-02-23T03:47:47;98950.34;;;4.35;90.73
80186;BME280;69904;52.122;5.422;2024-02-23T03:50:14;98937.19;;;4.33;90.68
80186;BME280;69904;52.122;5.422;2024-02-23T03:52:40;98940.50;;;4.35;90.88
80186;BME280;69904;52.122;5.422;2024-02-23T03:55:07;98937.19;;;4.33;90.94
80186;BME280;69904;52.122;5.422;2024-02-23T03:57:34;98936.41;;;4.33;91.05
80186;BME280;69904;52.122;5.422;2024-02-23T04:00:01;98942.34;;;4.35;91.11
80186;BME280;69904;52.122;5.422;2024-02-23T04:02:27;98937.19;;;4.33;90.90
80186;BME280;69904;52.122;5.422;2024-02-23T04:04:54;98935.56;;;4.32;91.06
80186;BME280;69904;52.122;5.422;2024-02-23T04:07:21;98943.97;;;4.29;91.10
80186;BME280;69904;52.122;5.422;2024-02-23T04:09:47;98935.13;;;4.29;91.00
80186;BME280;69904;52.122;5.422;2024-02-23T04:12:19;98951.59;;;4.26;91.25
80186;BME280;69904;52.122;5.422;2024-02-23T04:14:46;98950.34;;;4.21;91.39
80186;BME280;69904;52.122;5.422;2024-02-23T04:17:12;98952.38;;;4.19;91.34
80186;BME280;69904;52.122;5.422;2024-02-23T04:19:40;98950.94;;;4.17;91.33
80186;BME280;69904;52.122;5.422;2024-02-23T04:22:08;98947.69;;;4.21;91.24
80186;BME280;69904;52.122;5.422;2024-02-23T04:24:38;98957.53;;;4.21;91.29
80186;BME280;69904;52.122;5.422;2024-02-23T04:27:05;98956.28;;;4.17;91.56
80186;BME280;69904;52.122;5.422;2024-02-23T04:29:32;98955.03;;;4.13;91.64
80186;BME280;69904;52.122;5.422;2024-02-23T04:32:00;98955.03;;;4.13;91.53
80186;BME280;69904;52.122;5.422;2024-02-23T04:34:28;98960.56;;;4.11;91.58
80186;BME280;69904;52.122;5.422;2024-02-23T04:36:54;98959.97;;;4.09;91.60
80186;BME280;69904;52.122;5.422;2024-02-23T04:39:21;98959.34;;;4.07;91.61
80186;BME280;69904;52.122;5.422;2024-02-23T04:41:48;98958.09;;;4.03;92.04
80186;BME280;69904;52.122;5.422;2024-02-23T04:44:14;98967.31;;;4.01;91.73
80186;BME280;69904;52.122;5.422;2024-02-23T04:46:40;98969.38;;;3.99;92.15
80186;BME280;69904;52.122;5.422;2024-02-23T04:49:07;98987.66;;;4.02;92.16
80186;BME280;69904;52.122;5.422;2024-02-23T04:51:33;98978.63;;;4.03;92.47
80186;BME280;69904;52.122;5.422;2024-02-23T04:54:00;98962.63;;;4.03;92.36
80186;BME280;69904;52.122;5.422;2024-02-23T04:56:26;98971.44;;;4.03;92.16
80186;BME280;69904;52.122;5.422;2024-02-23T04:58:53;98979.03;;;4.06;92.27
80186;BME280;69904;52.122;5.422;2024-02-23T05:01:19;98980.50;;;4.09;92.42
80186;BME280;69904;52.122;5.422;2024-02-23T05:03:46;98980.31;;;4.10;92.42
80186;BME280;69904;52.122;5.422;2024-02-23T05:06:12;98972.28;;;4.10;92.68
80186;BME280;69904;52.122;5.422;2024-02-23T05:08:39;98978.47;;;4.11;92.57
80186;BME280;69904;52.122;5.422;2024-02-23T05:11:07;98982.16;;;4.10;92.50
80186;BME280;69904;52.122;5.422;2024-02-23T05:13:33;98982.56;;;4.13;92.24
80186;BME280;69904;52.122;5.422;2024-02-23T05:16:00;98977.03;;;4.15;92.39
80186;BME280;69904;52.122;5.422;2024-02-23T05:18:27;98968.19;;;4.14;92.31
80186;BME280;69904;52.122;5.422;2024-02-23T05:20:53;98971.50;;;4.16;92.49
80186;BME280;69904;52.122;5.422;2024-02-23T05:23:20;98977.63;;;4.17;92.24
80186;BME280;69904;52.122;5.422;2024-02-23T05:25:47;98974.56;;;4.20;92.13
80186;BME280;69904;52.122;5.422;2024-02-23T05:28:13;98965.31;;;4.22;92.29
80186;BME280;69904;52.122;5.422;2024-02-23T05:30:39;98974.97;;;4.23;92.26
80186;BME280;69904;52.122;5.422;2024-02-23T05:33:07;98979.50;;;4.23;92.21
80186;BME280;69904;52.122;5.422;2024-02-23T05:35:33;98978.28;;;4.26;91.99
80186;BME280;69904;52.122;5.422;2024-02-23T05:38:00;98975.41;;;4.27;92.24
80186;BME280;69904;52.122;5.422;2024-02-23T05:40:27;98982.38;;;4.28;92.09
80186;BME280;69904;52.122;5.422;2024-02-23T05:42:53;98976.00;;;4.29;92.12
80186;BME280;69904;52.122;5.422;2024-02-23T05:45:21;98978.50;;;4.31;92.00
80186;BME280;69904;52.122;5.422;2024-02-23T05:47:48;98977.47;;;4.32;91.91
80186;BME280;69904;52.122;5.422;2024-02-23T05:50:15;98980.97;;;4.32;91.47
80186;BME280;69904;52.122;5.422;2024-02-23T05:52:42;98979.13;;;4.33;91.74
80186;BME280;69904;52.122;5.422;2024-02-23T05:55:09;98971.91;;;4.33;91.49
80186;BME280;69904;52.122;5.422;2024-02-23T05:57:35;98972.72;;;4.34;91.64
80186;BME280;69904;52.122;5.422;2024-02-23T06:00:03;98987.34;;;4.38;91.40
80186;BME280;69904;52.122;5.422;2024-02-23T06:02:29;98985.69;;;4.37;91.10
80186;BME280;69904;52.122;5.422;2024-02-23T06:04:56;98974.00;;;4.38;91.07
80186;BME280;69904;52.122;5.422;2024-02-23T06:07:23;98975.41;;;4.40;91.00
80186;BME280;69904;52.122;5.422;2024-02-23T06:09:55;98971.72;;;4.41;90.85
80186;BME280;69904;52.122;5.422;2024-02-23T06:12:22;98981.38;;;4.42;90.74
80186;BME280;69904;52.122;5.422;2024-02-23T06:14:50;98980.38;;;4.43;90.44
80186;BME280;69904;52.122;5.422;2024-02-23T06:17:17;98972.13;;;4.45;90.69
80186;BME280;69904;52.122;5.422;2024-02-23T06:19:44;98973.97;;;4.44;90.70
80186;BME280;69904;52.122;5.422;2024-02-23T06:22:11;98993.50;;;4.45;90.65
80186;BME280;69904;52.122;5.422;2024-02-23T06:24:38;98987.97;;;4.46;90.23
80186;BME280;69904;52.122;5.422;2024-02-23T06:27:05;98978.94;;;4.47;90.01
80186;BME280;69904;52.122;5.422;2024-02-23T06:29:31;98983.25;;;4.48;90.13
80186;BME280;69904;52.122;5.422;2024-02-23T06:31:58;98989.81;;;4.52;89.68
80186;BME280;69904;52.122;5.422;2024-02-23T06:34:24;98995.75;;;4.54;89.49
80186;BME280;69904;52.122;5.422;2024-02-23T06:36:51;98983.66;;;4.58;89.90
80186;BME280;69904;52.122;5.422;2024-02-23T06:39:18;98994.94;;;4.60;89.30
80186;BME280;69904;52.122;5.422;2024-02-23T06:41:44;98998.25;;;4.62;88.94
80186;BME280;69904;52.122;5.422;2024-02-23T06:44:11;99004.22;;;4.64;88.94
80186;BME280;69904;52.122;5.422;2024-02-23T06:46:37;98999.28;;;4.68;88.38
80186;BME280;69904;52.122;5.422;2024-02-23T06:49:04;99004.44;;;4.70;88.43
80186;BME280;69904;52.122;5.422;2024-02-23T06:51:31;99014.06;;;4.71;87.83
80186;BME280;69904;52.122;5.422;2024-02-23T06:53:58;99011.19;;;4.72;87.66
80186;BME280;69904;52.122;5.422;2024-02-23T06:56:24;98999.28;;;4.75;87.34
80186;BME280;69904;52.122;5.422;2024-02-23T06:58:51;98993.94;;;4.75;87.83
80186;BME280;69904;52.122;5.422;2024-02-23T07:01:20;98991.28;;;4.75;87.69
80186;BME280;69904;52.122;5.422;2024-02-23T07:03:46;98993.53;;;4.78;87.60
80186;BME280;69904;52.122;5.422;2024-02-23T07:06:15;98990.03;;;4.77;87.40
80186;BME280;69904;52.122;5.422;2024-02-23T07:08:44;99005.03;;;4.78;86.98
80186;BME280;69904;52.122;5.422;2024-02-23T07:11:12;98998.47;;;4.81;87.00
80186;BME280;69904;52.122;5.422;2024-02-23T07:13:38;98997.66;;;4.80;87.29
80186;BME280;69904;52.122;5.422;2024-02-23T07:16:06;98992.09;;;4.82;87.24
80186;BME280;69904;52.122;5.422;2024-02-23T07:18:32;99001.75;;;4.83;87.41
80186;BME280;69904;52.122;5.422;2024-02-23T07:20:59;99003.19;;;4.85;87.17
80186;BME280;69904;52.122;5.422;2024-02-23T07:23:25;99009.16;;;4.87;86.77
80186;BME280;69904;52.122;5.422;2024-02-23T07:25:52;99008.94;;;4.89;87.10
80186;BME280;69904;52.122;5.422;2024-02-23T07:28:19;99004.84;;;4.93;86.49
80186;BME280;69904;52.122;5.422;2024-02-23T07:30:46;99000.09;;;4.95;86.31
80186;BME280;69904;52.122;5.422;2024-02-23T07:33:13;98997.25;;;4.96;86.54
80186;BME280;69904;52.122;5.422;2024-02-23T07:35:39;98998.66;;;4.99;86.56
80186;BME280;69904;52.122;5.422;2024-02-23T07:38:06;98991.47;;;4.99;86.64
80186;BME280;69904;52.122;5.422;2024-02-23T07:40:32;98993.13;;;5.00;86.07
80186;BME280;69904;52.122;5.422;2024-02-23T07:42:59;98991.88;;;5.03;86.44
80186;BME280;69904;52.122;5.422;2024-02-23T07:45:25;98975.81;;;5.03;86.32
80186;BME280;69904;52.122;5.422;2024-02-23T07:47:52;98975.19;;;5.07;86.21
80186;BME280;69904;52.122;5.422;2024-02-23T07:50:19;98973.53;;;5.13;86.11
80186;BME280;69904;52.122;5.422;2024-02-23T07:52:45;98978.50;;;5.16;85.42
80186;BME280;69904;52.122;5.422;2024-02-23T07:55:12;98992.25;;;5.20;85.59
80186;BME280;69904;52.122;5.422;2024-02-23T07:57:42;98959.97;;;5.21;84.80
80186;BME280;69904;52.122;5.422;2024-02-23T08:00:09;98963.47;;;5.22;84.63
80186;BME280;69904;52.122;5.422;2024-02-23T08:02:36;98970.66;;;5.21;83.88
80186;BME280;69904;52.122;5.422;2024-02-23T08:05:03;98963.47;;;5.22;84.12
80186;BME280;69904;52.122;5.422;2024-02-23T08:07:30;98962.44;;;5.23;83.96
80186;BME280;69904;52.122;5.422;2024-02-23T08:09:57;98960.59;;;5.23;84.27
80186;BME280;69904;52.122;5.422;2024-02-23T08:12:23;98960.59;;;5.23;84.01
80186;BME280;69904;52.122;5.422;2024-02-23T08:14:50;98964.69;;;5.26;83.82
80186;BME280;69904;52.122;5.422;2024-02-23T08:17:19;98959.97;;;5.28;83.94
80186;BME280;69904;52.122;5.422;2024-02-23T08:19:46;98958.69;;;5.30;83.88
80186;BME280;69904;52.122;5.422;2024-02-23T08:22:13;98965.69;;;5.31;83.58
80186;BME280;69904;52.122;5.422;2024-02-23T08:24:39;98952.31;;;5.31;83.30
80186;BME280;69904;52.122;5.422;2024-02-23T08:27:06;98961.38;;;5.30;83.02
80186;BME280;69904;52.122;5.422;2024-02-23T08:29:33;98961.38;;;5.30;83.20
80186;BME280;69904;52.122;5.422;2024-02-23T08:31:59;98959.53;;;5.31;83.33
80186;BME280;69904;52.122;5.422;2024-02-23T08:34:26;98957.88;;;5.30;82.91
80186;BME280;69904;52.122;5.422;2024-02-23T08:36:52;98955.19;;;5.30;83.38
80186;BME280;69904;52.122;5.422;2024-02-23T08:39:19;98958.69;;;5.30;82.97
80186;BME280;69904;52.122;5.422;2024-02-23T08:41:48;98946.16;;;5.31;83.01
80186;BME280;69904;52.122;5.422;2024-02-23T08:44:14;98945.31;;;5.30;83.06
80186;BME280;69904;52.122;5.422;2024-02-23T08:46:41;98938.13;;;5.31;83.02
80186;BME280;69904;52.122;5.422;2024-02-23T08:49:07;98948.44;;;5.34;83.07
80186;BME280;69904;52.122;5.422;2024-02-23T08:51:34;98927.81;;;5.34;82.95
80186;BME280;69904;52.122;5.422;2024-02-23T08:54:01;98943.06;;;5.34;82.65
80186;BME280;69904;52.122;5.422;2024-02-23T08:56:30;98941.63;;;5.31;83.56
80186;BME280;69904;52.122;5.422;2024-02-23T08:58:58;98945.31;;;5.30;83.87
80186;BME280;69904;52.122;5.422;2024-02-23T09:01:24;98947.41;;;5.28;84.36
80186;BME280;69904;52.122;5.422;2024-02-23T09:03:51;98956.03;;;5.30;84.33
80186;BME280;69904;52.122;5.422;2024-02-23T09:06:18;98941.00;;;5.29;84.60
80186;BME280;69904;52.122;5.422;2024-02-23T09:08:46;98937.09;;;5.32;84.42
80186;BME280;69904;52.122;5.422;2024-02-23T09:11:12;98962.41;;;5.36;84.72
80186;BME280;69904;52.122;5.422;2024-02-23T09:13:41;98969.41;;;5.37;84.60
80186;BME280;69904;52.122;5.422;2024-02-23T09:16:08;98953.53;;;5.35;84.53
80186;BME280;69904;52.122;5.422;2024-02-23T09:18:35;98962.41;;;5.36;85.17
80186;BME280;69904;52.122;5.422;2024-02-23T09:21:02;98972.28;;;5.35;85.30
80186;BME280;69904;52.122;5.422;2024-02-23T09:23:29;98956.22;;;5.35;85.16
80186;BME280;69904;52.122;5.422;2024-02-23T09:25:55;98982.56;;;5.38;84.96
80186;BME280;69904;52.122;5.422;2024-02-23T09:28:22;98954.78;;;5.39;85.01
80186;BME280;69904;52.122;5.422;2024-02-23T09:30:49;98962.38;;;5.42;84.91
80186;BME280;69904;52.122;5.422;2024-02-23T09:33:15;98952.31;;;5.44;84.27
80186;BME280;69904;52.122;5.422;2024-02-23T09:35:42;98970.78;;;5.46;84.92
80186;BME280;69904;52.122;5.422;2024-02-23T09:38:08;98962.78;;;5.46;84.87
80186;BME280;69904;52.122;5.422;2024-02-23T09:40:35;98975.94;;;5.47;84.97
80186;BME280;69904;52.122;5.422;2024-02-23T09:43:01;98970.59;;;5.47;85.14
80186;BME280;69904;52.122;5.422;2024-02-23T09:45:30;98969.56;;;5.48;84.84
80186;BME280;69904;52.122;5.422;2024-02-23T09:47:57;98973.91;;;5.49;85.14
80186;BME280;69904;52.122;5.422;2024-02-23T09:50:25;98972.84;;;5.50;84.99
80186;BME280;69904;52.122;5.422;2024-02-23T09:52:52;98971.81;;;5.51;85.12
80186;BME280;69904;52.122;5.422;2024-02-23T09:55:21;99001.47;;;5.50;85.59
80186;BME280;69904;52.122;5.422;2024-02-23T09:57:49;99005.38;;;5.47;86.01
80186;BME280;69904;52.122;5.422;2024-02-23T10:00:17;99008.06;;;5.47;86.33
80186;BME280;69904;52.122;5.422;2024-02-23T10:02:44;99016.69;;;5.49;86.50
80186;BME280;69904;52.122;5.422;2024-02-23T10:05:12;98996.06;;;5.57;85.39
80186;BME280;69904;52.122;5.422;2024-02-23T10:07:40;98996.25;;;5.68;85.45
80186;BME280;69904;52.122;5.422;2024-02-23T10:10:08;98981.00;;;5.75;85.44
80186;BME280;69904;52.122;5.422;2024-02-23T10:12:34;99000.75;;;5.81;85.78
80186;BME280;69904;52.122;5.422;2024-02-23T10:15:04;98994.56;;;5.80;85.94
80186;BME280;69904;52.122;5.422;2024-02-23T10:17:32;98996.22;;;5.81;85.90
80186;BME280;69904;52.122;5.422;2024-02-23T10:20:01;99003.00;;;5.84;85.97
80186;BME280;69904;52.122;5.422;2024-02-23T10:22:31;98997.84;;;5.82;85.67
80186;BME280;69904;52.122;5.422;2024-02-23T10:24:58;99000.50;;;5.82;85.98
80186;BME280;69904;52.122;5.422;2024-02-23T10:27:25;99000.94;;;5.86;85.87
80186;BME280;69904;52.122;5.422;2024-02-23T10:29:52;99012.66;;;5.85;85.41
80186;BME280;69904;52.122;5.422;2024-02-23T10:32:20;99018.47;;;5.82;85.77
80186;BME280;69904;52.122;5.422;2024-02-23T10:34:48;99015.16;;;5.80;85.79
80186;BME280;69904;52.122;5.422;2024-02-23T10:37:17;99012.47;;;5.80;86.18
80186;BME280;69904;52.122;5.422;2024-02-23T10:39:45;99018.88;;;5.79;85.79
80186;BME280;69904;52.122;5.422;2024-02-23T10:42:12;99016.19;;;5.79;85.78
80186;BME280;69904;52.122;5.422;2024-02-23T10:44:39;99029.56;;;5.79;86.18
80186;BME280;69904;52.122;5.422;2024-02-23T10:47:06;99044.81;;;5.78;86.33
80186;BME280;69904;52.122;5.422;2024-02-23T10:49:34;99032.25;;;5.79;86.43
80186;BME280;69904;52.122;5.422;2024-02-23T10:52:01;99041.31;;;5.78;86.30
80186;BME280;69904;52.122;5.422;2024-02-23T10:54:29;99045.22;;;5.82;86.58
80186;BME280;69904;52.122;5.422;2024-02-23T10:56:57;99034.50;;;5.88;86.39
80186;BME280;69904;52.122;5.422;2024-02-23T10:59:24;99048.91;;;5.94;86.66
80186;BME280;69904;52.122;5.422;2024-02-23T11:01:54;99040.66;;;5.96;85.60
80186;BME280;69904;52.122;5.422;2024-02-23T11:04:26;99043.72;;;6.06;85.42
80186;BME280;69904;52.122;5.422;2024-02-23T11:06:55;99030.44;;;6.24;85.32
80186;BME280;69904;52.122;5.422;2024-02-23T11:09:25;99046.69;;;6.29;84.73
80186;BME280;69904;52.122;5.422;2024-02-23T11:14:29;99042.09;;;6.43;83.63
80186;BME280;69904;52.122;5.422;2024-02-23T11:16:55;99048.22;;;6.50;83.89
80186;BME280;69904;52.122;5.422;2024-02-23T11:19:32;99046.75;;;6.54;83.49
80186;BME280;69904;52.122;5.422;2024-02-23T11:21:58;99039.31;;;6.62;83.52
80186;BME280;69904;52.122;5.422;2024-02-23T11:24:25;99044.00;;;6.67;82.63
80186;BME280;69904;52.122;5.422;2024-02-23T11:26:58;99051.19;;;6.73;82.28
80186;BME280;69904;52.122;5.422;2024-02-23T11:29:29;99065.34;;;6.80;82.25
80186;BME280;69904;52.122;5.422;2024-02-23T11:31:56;99055.03;;;6.84;82.29
80186;BME280;69904;52.122;5.422;2024-02-23T11:34:30;99063.47;;;6.87;82.16
80186;BME280;69904;52.122;5.422;2024-02-23T11:36:57;99050.44;;;6.91;81.51
80186;BME280;69904;52.122;5.422;2024-02-23T11:39:26;99044.47;;;6.89;80.80
80186;BME280;69904;52.122;5.422;2024-02-23T11:41:53;99041.06;;;7.00;80.21
80186;BME280;69904;52.122;5.422;2024-02-23T11:44:20;99061.66;;;7.06;79.87
80186;BME280;69904;52.122;5.422;2024-02-23T11:46:46;99052.03;;;7.23;79.04
80186;BME280;69904;52.122;5.422;2024-02-23T11:49:16;99075.31;;;7.29;78.49
80186;BME280;69904;52.122;5.422;2024-02-23T11:51:43;99060.78;;;7.37;78.76
80186;BME280;69904;52.122;5.422;2024-02-23T11:54:10;99069.06;;;7.35;78.55
80186;BME280;69904;52.122;5.422;2024-02-23T11:56:37;99063.25;;;7.38;78.75
80186;BME280;69904;52.122;5.422;2024-02-23T11:59:04;99068.44;;;7.33;79.27
80186;BME280;69904;52.122;5.422;2024-02-23T12:01:31;99075.91;;;7.31;79.43
80186;BME280;69904;52.122;5.422;2024-02-23T12:03:58;99091.44;;;7.23;78.25
80186;BME280;69904;52.122;5.422;2024-02-23T12:06:24;99080.72;;;7.23;79.05
80186;BME280;69904;52.122;5.422;2024-02-23T12:08:55;99058.06;;;7.18;79.54
80186;BME280;69904;52.122;5.422;2024-02-23T12:11:22;99080.38;;;7.12;79.38
80186;BME280;69904;52.122;5.422;2024-02-23T12:13:49;99080.22;;;7.07;79.29
80186;BME280;69904;52.122;5.422;2024-02-23T12:16:17;99086.63;;;7.06;78.81
80186;BME280;69904;52.122;5.422;2024-02-23T12:18:43;99084.34;;;7.10;78.91
80186;BME280;69904;52.122;5.422;2024-02-23T12:21:10;99072.94;;;7.14;79.04
80186;BME280;69904;52.122;5.422;2024-02-23T12:23:44;99079.88;;;7.22;79.18
80186;BME280;69904;52.122;5.422;2024-02-23T12:26:15;99067.69;;;7.26;78.24
80186;BME280;69904;52.122;5.422;2024-02-23T12:28:43;99072.09;;;7.39;78.21
80186;BME280;69904;52.122;5.422;2024-02-23T12:31:10;99074.53;;;7.47;77.57
80186;BME280;69904;52.122;5.422;2024-02-23T12:33:38;99072.81;;;7.52;77.54
80186;BME280;69904;52.122;5.422;2024-02-23T12:36:07;99104.44;;;7.50;77.31
80186;BME280;69904;52.122;5.422;2024-02-23T12:38:35;99073.03;;;7.51;77.58
80186;BME280;69904;52.122;5.422;2024-02-23T12:41:02;99083.31;;;7.54;77.61
80186;BME280;69904;52.122;5.422;2024-02-23T12:43:29;99077.13;;;7.53;77.26
80186;BME280;69904;52.122;5.422;2024-02-23T12:45:57;99080.94;;;7.64;76.20
80186;BME280;69904;52.122;5.422;2024-02-23T12:48:23;99088.53;;;7.74;75.40
80186;BME280;69904;52.122;5.422;2024-02-23T12:50:53;99090.59;;;7.72;75.95
80186;BME280;69904;52.122;5.422;2024-02-23T12:53:40;99070.38;;;7.87;76.24
80186;BME280;69904;52.122;5.422;2024-02-23T12:56:08;99078.81;;;8.27;74.78
80186;BME280;69904;52.122;5.422;2024-02-23T12:58:39;99087.34;;;8.06;74.37
80186;BME280;69904;52.122;5.422;2024-02-23T13:01:06;99085.69;;;8.05;74.25
80186;BME280;69904;52.122;5.422;2024-02-23T13:03:35;99095.53;;;8.29;74.37
80186;BME280;69904;52.122;5.422;2024-02-23T13:06:03;99090.59;;;8.26;72.45
80186;BME280;69904;52.122;5.422;2024-02-23T13:08:29;99116.72;;;8.19;72.67
80186;BME280;69904;52.122;5.422;2024-02-23T13:10:57;99100.09;;;8.11;73.43
80186;BME280;69904;52.122;5.422;2024-02-23T13:13:24;99111.13;;;8.02;73.67